Rockport, TX (78381)

8:36 PM CST on November 20, 2014 (GMT -0600)
Palm Harbor-Buddy's Place | Change Station
CLOSE
Current Station
Personal Weather Station
Location: Rockport, TX
Elevation: 10 ft
Nearby Weather Stations

Elev 10 ft 27.97 °N, 97.09 °W | Updated 22 seconds ago

Overcast
Overcast
65.0 °F
Feels Like 65.0 °F
N
4.0
Wind Variable Wind from SSE
Gusts 14.0 mph

Today
High -- | Low -- °F
--% Chance of Precip.
Yesterday
High -- | Low -- °F
Precip. -- in
6:53 AM 5:33 PM
Waning Crescent, 2% visible
Pressure 30.05 in
Visibility 3.0 miles
Clouds Scattered Clouds 1100 ft
Mostly Cloudy 1800 ft
Overcast 2500 ft
Dew Point 64 °F
Humidity 97%
Rainfall 0.42 in
Snow Depth Not available.
UV 0 out of 12
Pollen 3.00 out of 12
Air Quality Not available.
Flu Activity Not available.
SPECI KRKP 210213Z AUTO 19008KT 3SM +RA BR SCT011 BKN018 OVC025 19/18 A3005 RMK AO2 P0007 T01940183

More Conditions Fewer Conditions

Pressure 30.05 in
Visibility 3.0 miles
Clouds Scattered Clouds 1100 ft
Mostly Cloudy 1800 ft
Overcast 2500 ft
Dew Point 64 °F
Humidity 97%
Rainfall 0.42 in
Snow Depth Not available.
UV 0 out of 12
Pollen 3.00 out of 12
Air Quality Not available.
Flu Activity Not available.
SPECI KRKP 210213Z AUTO 19008KT 3SM +RA BR SCT011 BKN018 OVC025 19/18 A3005 RMK AO2 P0007 T01940183

More Conditions Fewer Conditions

Nowcast | as of 8:18 PM CST on November 20, 2014

Through 10 PM CST...isolated to scattered showers will continue to move north across the coastal Bend..Victoria Crossroads and the middle Texas coastal waters. Rainfall will be light with these showers. Rainfall amounts will be less than a tenth of an inch.

×

10-Day Weather Forecast

Almanac

Astronomy

Nov. 20, 2014 Rise Set
Actual Time
Civil Twilight
Nautical Twilight
Astronomical Twilight
Moon
Length of Visible Light
Length of Day
Tomorrow will be .
, % of the Moon is Illuminated

Today's Extremes

State Highs State Lows

Community

WunderPhotos

Upload Photos

1,772,591 photos uploaded!

WunderBlogs® & News

Nearby

Air Quality

  Air Quality AQ Index Pollutant
Not available.

Snow Depth

Station Depth Elevation

Earthquake Activity

City Distance Mag. Time & Date
Minimum magnitude displayed is 2.5.

Coastal Water Temperatures

Place Temperature

Nearby Weather Stations